sensor_id;sensor_type;location;lat;lon;timestamp;pressure;altitude;pressure_sealevel;temperature;humidity
43814;BME280;29669;55.706;37.656;2023-03-01T00:02:17;99161.84;;;-4.24;nan
43814;BME280;29669;55.706;37.656;2023-03-01T00:04:46;99164.75;;;-4.30;nan
43814;BME280;29669;55.706;37.656;2023-03-01T00:07:14;99161.22;;;-4.27;nan
43814;BME280;29669;55.706;37.656;2023-03-01T00:09:42;99157.16;;;-4.30;nan
43814;BME280;29669;55.706;37.656;2023-03-01T00:12:13;99157.31;;;-4.33;nan
43814;BME280;29669;55.706;37.656;2023-03-01T00:14:42;99162.22;;;-4.30;nan
43814;BME280;29669;55.706;37.656;2023-03-01T00:17:10;99159.00;;;-4.33;nan
43814;BME280;29669;55.706;37.656;2023-03-01T00:19:38;99160.56;;;-4.31;nan
43814;BME280;29669;55.706;37.656;2023-03-01T00:22:06;99144.00;;;-4.36;nan
43814;BME280;29669;55.706;37.656;2023-03-01T00:24:35;99155.50;;;-4.31;nan
43814;BME280;29669;55.706;37.656;2023-03-01T00:27:03;99153.78;;;-4.30;nan
43814;BME280;29669;55.706;37.656;2023-03-01T00:29:31;99158.03;;;-4.31;nan
43814;BME280;29669;55.706;37.656;2023-03-01T00:32:00;99171.69;;;-4.33;nan
43814;BME280;29669;55.706;37.656;2023-03-01T00:34:28;99151.50;;;-4.35;nan
43814;BME280;29669;55.706;37.656;2023-03-01T00:36:56;99132.59;;;-4.43;nan
43814;BME280;29669;55.706;37.656;2023-03-01T00:39:34;99147.59;;;-4.40;nan
43814;BME280;29669;55.706;37.656;2023-03-01T00:42:02;99154.38;;;-4.41;nan
43814;BME280;29669;55.706;37.656;2023-03-01T00:44:31;99149.31;;;-4.41;nan
43814;BME280;29669;55.706;37.656;2023-03-01T00:47:00;99158.56;;;-4.40;nan
43814;BME280;29669;55.706;37.656;2023-03-01T00:49:28;99144.59;;;-4.47;nan
43814;BME280;29669;55.706;37.656;2023-03-01T00:51:56;99156.19;;;-4.43;nan
43814;BME280;29669;55.706;37.656;2023-03-01T00:54:24;99159.63;;;-4.44;nan
43814;BME280;29669;55.706;37.656;2023-03-01T00:56:52;99146.22;;;-4.46;nan
43814;BME280;29669;55.706;37.656;2023-03-01T00:59:20;99151.47;;;-4.49;nan
43814;BME280;29669;55.706;37.656;2023-03-01T01:01:48;99141.69;;;-4.55;nan
43814;BME280;29669;55.706;37.656;2023-03-01T01:04:17;99150.16;;;-4.56;nan
43814;BME280;29669;55.706;37.656;2023-03-01T01:06:46;99141.81;;;-4.58;nan
43814;BME280;29669;55.706;37.656;2023-03-01T01:09:16;99143.66;;;-4.60;nan
43814;BME280;29669;55.706;37.656;2023-03-01T01:11:49;99140.28;;;-4.60;nan
43814;BME280;29669;55.706;37.656;2023-03-01T01:14:18;99146.09;;;-4.58;nan
43814;BME280;29669;55.706;37.656;2023-03-01T01:16:48;99144.34;;;-4.58;nan
43814;BME280;29669;55.706;37.656;2023-03-01T01:19:17;99142.66;;;-4.57;nan
43814;BME280;29669;55.706;37.656;2023-03-01T01:21:45;99135.47;;;-4.65;nan
43814;BME280;29669;55.706;37.656;2023-03-01T01:24:14;99139.47;;;-4.61;nan
43814;BME280;29669;55.706;37.656;2023-03-01T01:26:43;99146.44;;;-4.64;nan
43814;BME280;29669;55.706;37.656;2023-03-01T01:29:15;99142.09;;;-4.62;nan
43814;BME280;29669;55.706;37.656;2023-03-01T01:31:43;99146.44;;;-4.64;nan
43814;BME280;29669;55.706;37.656;2023-03-01T01:34:17;99149.94;;;-4.67;nan
43814;BME280;29669;55.706;37.656;2023-03-01T01:36:50;99147.41;;;-4.67;nan
43814;BME280;29669;55.706;37.656;2023-03-01T01:39:22;99133.22;;;-4.69;nan
43814;BME280;29669;55.706;37.656;2023-03-01T01:41:50;99145.94;;;-4.71;nan
43814;BME280;29669;55.706;37.656;2023-03-01T01:44:25;99136.94;;;-4.77;nan
43814;BME280;29669;55.706;37.656;2023-03-01T01:46:57;99144.31;;;-4.72;nan
43814;BME280;29669;55.706;37.656;2023-03-01T01:52:10;99159.91;;;-4.80;nan
43814;BME280;29669;55.706;37.656;2023-03-01T01:54:49;99159.34;;;-4.85;nan
43814;BME280;29669;55.706;37.656;2023-03-01T01:57:26;99149.59;;;-4.77;nan
43814;BME280;29669;55.706;37.656;2023-03-01T01:59:58;99146.44;;;-4.64;nan
43814;BME280;29669;55.706;37.656;2023-03-01T02:02:30;99147.38;;;-4.51;nan
43814;BME280;29669;55.706;37.656;2023-03-01T02:05:09;99142.63;;;-4.42;nan
43814;BME280;29669;55.706;37.656;2023-03-01T02:07:39;99146.53;;;-4.36;nan
43814;BME280;29669;55.706;37.656;2023-03-01T02:10:09;99148.19;;;-4.35;nan
43814;BME280;29669;55.706;37.656;2023-03-01T02:12:39;99137.22;;;-4.36;nan
43814;BME280;29669;55.706;37.656;2023-03-01T02:15:07;99142.72;;;-4.43;nan
43814;BME280;29669;55.706;37.656;2023-03-01T02:17:35;99149.28;;;-4.55;nan
43814;BME280;29669;55.706;37.656;2023-03-01T02:22:36;99149.84;;;-4.65;nan
43814;BME280;29669;55.706;37.656;2023-03-01T02:30:31;99172.06;;;-4.86;nan
43814;BME280;29669;55.706;37.656;2023-03-01T02:33:03;99164.16;;;-4.80;nan
43814;BME280;29669;55.706;37.656;2023-03-01T02:35:37;99159.09;;;-4.80;nan
43814;BME280;29669;55.706;37.656;2023-03-01T02:38:07;99166.69;;;-4.80;nan
43814;BME280;29669;55.706;37.656;2023-03-01T02:40:37;99158.53;;;-4.85;nan
43814;BME280;29669;55.706;37.656;2023-03-01T02:43:08;99165.28;;;-4.86;nan
43814;BME280;29669;55.706;37.656;2023-03-01T02:45:47;99172.78;;;-4.84;nan
43814;BME280;29669;55.706;37.656;2023-03-01T02:48:16;99173.84;;;-4.88;nan
43814;BME280;29669;55.706;37.656;2023-03-01T02:51:05;99173.06;;;-4.89;nan
43814;BME280;29669;55.706;37.656;2023-03-01T02:56:03;99161.69;;;-4.97;nan
43814;BME280;29669;55.706;37.656;2023-03-01T02:58:31;99164.22;;;-4.97;nan
43814;BME280;29669;55.706;37.656;2023-03-01T03:01:00;99171.16;;;-5.01;nan
43814;BME280;29669;55.706;37.656;2023-03-01T03:03:28;99165.38;;;-5.03;nan
43814;BME280;29669;55.706;37.656;2023-03-01T03:05:56;99161.97;;;-5.02;nan
43814;BME280;29669;55.706;37.656;2023-03-01T03:08:25;99171.25;;;-5.02;nan
43814;BME280;29669;55.706;37.656;2023-03-01T03:10:53;99176.53;;;-5.07;nan
43814;BME280;29669;55.706;37.656;2023-03-01T03:13:21;99166.72;;;-5.13;nan
43814;BME280;29669;55.706;37.656;2023-03-01T03:15:50;99158.50;;;-5.16;nan
43814;BME280;29669;55.706;37.656;2023-03-01T03:18:18;99160.28;;;-5.18;nan
43814;BME280;29669;55.706;37.656;2023-03-01T03:20:47;99169.59;;;-5.19;nan
43814;BME280;29669;55.706;37.656;2023-03-01T03:23:21;99168.63;;;-5.16;nan
43814;BME280;29669;55.706;37.656;2023-03-01T03:25:49;99172.19;;;-5.20;nan
43814;BME280;29669;55.706;37.656;2023-03-01T03:28:18;99179.13;;;-5.24;nan
43814;BME280;29669;55.706;37.656;2023-03-01T03:30:47;99176.69;;;-5.25;nan
43814;BME280;29669;55.706;37.656;2023-03-01T03:33:14;99177.41;;;-5.23;nan
43814;BME280;29669;55.706;37.656;2023-03-01T03:35:45;99173.97;;;-5.22;nan
43814;BME280;29669;55.706;37.656;2023-03-01T03:38:15;99173.09;;;-5.21;nan
43814;BME280;29669;55.706;37.656;2023-03-01T03:40:48;99196.75;;;-5.22;nan
43814;BME280;29669;55.706;37.656;2023-03-01T03:43:21;99192.78;;;-5.26;nan
43814;BME280;29669;55.706;37.656;2023-03-01T03:45:50;99180.53;;;-5.34;nan
43814;BME280;29669;55.706;37.656;2023-03-01T03:48:19;99188.03;;;-5.32;nan
43814;BME280;29669;55.706;37.656;2023-03-01T03:50:51;99192.47;;;-5.37;nan
43814;BME280;29669;55.706;37.656;2023-03-01T03:53:20;99180.66;;;-5.37;nan
43814;BME280;29669;55.706;37.656;2023-03-01T03:55:48;99186.38;;;-5.33;nan
43814;BME280;29669;55.706;37.656;2023-03-01T03:58:20;99179.53;;;-5.31;nan
43814;BME280;29669;55.706;37.656;2023-03-01T04:00:51;99193.00;;;-5.31;nan
43814;BME280;29669;55.706;37.656;2023-03-01T04:03:20;99188.91;;;-5.33;nan
43814;BME280;29669;55.706;37.656;2023-03-01T04:05:49;99191.44;;;-5.33;nan
43814;BME280;29669;55.706;37.656;2023-03-01T04:08:22;99191.44;;;-5.33;nan
43814;BME280;29669;55.706;37.656;2023-03-01T04:10:53;99195.53;;;-5.31;nan
43814;BME280;29669;55.706;37.656;2023-03-01T04:13:24;99198.97;;;-5.32;nan
43814;BME280;29669;55.706;37.656;2023-03-01T04:15:54;99193.00;;;-5.31;nan
43814;BME280;29669;55.706;37.656;2023-03-01T04:18:23;99198.78;;;-5.29;nan
43814;BME280;29669;55.706;37.656;2023-03-01T04:20:53;99204.50;;;-5.25;nan
43814;BME280;29669;55.706;37.656;2023-03-01T04:23:23;99199.38;;;-5.24;nan
43814;BME280;29669;55.706;37.656;2023-03-01T04:25:55;99209.41;;;-5.22;nan
43814;BME280;29669;55.706;37.656;2023-03-01T04:28:27;99208.59;;;-5.23;nan
43814;BME280;29669;55.706;37.656;2023-03-01T04:30:56;99212.09;;;-5.25;nan
43814;BME280;29669;55.706;37.656;2023-03-01T04:33:25;99214.63;;;-5.25;nan
43814;BME280;29669;55.706;37.656;2023-03-01T04:35:53;99206.00;;;-5.21;nan
43814;BME280;29669;55.706;37.656;2023-03-01T04:38:20;99205.25;;;-5.23;nan
43814;BME280;29669;55.706;37.656;2023-03-01T04:40:48;99216.09;;;-5.21;nan
43814;BME280;29669;55.706;37.656;2023-03-01T04:43:17;99208.59;;;-5.23;nan
43814;BME280;29669;55.706;37.656;2023-03-01T04:45:45;99226.97;;;-5.19;nan
43814;BME280;29669;55.706;37.656;2023-03-01T04:48:13;99219.06;;;-5.13;nan
43814;BME280;29669;55.706;37.656;2023-03-01T04:50:40;99208.22;;;-5.15;nan
43814;BME280;29669;55.706;37.656;2023-03-01T04:53:08;99199.78;;;-5.16;nan
43814;BME280;29669;55.706;37.656;2023-03-01T04:55:36;99217.19;;;-5.10;nan
43814;BME280;29669;55.706;37.656;2023-03-01T04:58:04;99238.09;;;-5.06;nan
43814;BME280;29669;55.706;37.656;2023-03-01T05:00:31;99216.88;;;-5.04;nan
43814;BME280;29669;55.706;37.656;2023-03-01T05:03:00;99228.53;;;-5.01;nan
43814;BME280;29669;55.706;37.656;2023-03-01T05:05:37;99239.25;;;-4.96;nan
43814;BME280;29669;55.706;37.656;2023-03-01T05:08:07;99231.66;;;-4.96;nan
43814;BME280;29669;55.706;37.656;2023-03-01T05:10:36;99218.28;;;-4.98;nan
43814;BME280;29669;55.706;37.656;2023-03-01T05:13:04;99232.41;;;-4.94;nan
43814;BME280;29669;55.706;37.656;2023-03-01T05:15:32;99224.47;;;-4.88;nan
43814;BME280;29669;55.706;37.656;2023-03-01T05:18:00;99227.75;;;-4.86;nan
43814;BME280;29669;55.706;37.656;2023-03-01T05:20:29;99222.38;;;-4.80;nan
43814;BME280;29669;55.706;37.656;2023-03-01T05:22:59;99233.97;;;-4.60;nan
43814;BME280;29669;55.706;37.656;2023-03-01T05:25:27;99235.03;;;-4.49;nan
43814;BME280;29669;55.706;37.656;2023-03-01T05:28:02;99248.34;;;-4.30;nan
43814;BME280;29669;55.706;37.656;2023-03-01T05:30:33;99242.34;;;-4.13;nan
43814;BME280;29669;55.706;37.656;2023-03-01T05:33:01;99242.56;;;-4.02;nan
43814;BME280;29669;55.706;37.656;2023-03-01T05:35:29;99243.63;;;-3.91;nan
43814;BME280;29669;55.706;37.656;2023-03-01T05:38:00;99251.63;;;-3.83;nan
43814;BME280;29669;55.706;37.656;2023-03-01T05:40:28;99256.41;;;-3.78;nan
43814;BME280;29669;55.706;37.656;2023-03-01T05:42:56;99250.69;;;-3.82;nan
43814;BME280;29669;55.706;37.656;2023-03-01T05:45:26;99251.44;;;-3.79;nan
43814;BME280;29669;55.706;37.656;2023-03-01T05:47:54;99265.38;;;-3.72;nan
43814;BME280;29669;55.706;37.656;2023-03-01T05:50:32;99266.94;;;-3.70;nan
43814;BME280;29669;55.706;37.656;2023-03-01T05:53:02;99273.81;;;-3.72;nan
43814;BME280;29669;55.706;37.656;2023-03-01T05:55:32;99268.03;;;-3.74;nan
43814;BME280;29669;55.706;37.656;2023-03-01T05:58:06;99263.69;;;-3.72;nan
43814;BME280;29669;55.706;37.656;2023-03-01T06:00:34;99275.03;;;-3.63;nan
43814;BME280;29669;55.706;37.656;2023-03-01T06:03:02;99267.00;;;-3.56;nan
43814;BME280;29669;55.706;37.656;2023-03-01T06:05:31;99273.34;;;-3.49;nan
43814;BME280;29669;55.706;37.656;2023-03-01T06:08:00;99277.78;;;-3.38;nan
43814;BME280;29669;55.706;37.656;2023-03-01T06:10:28;99271.66;;;-3.34;nan
43814;BME280;29669;55.706;37.656;2023-03-01T06:12:57;99288.06;;;-3.26;nan
43814;BME280;29669;55.706;37.656;2023-03-01T06:15:25;99281.09;;;-3.22;nan
43814;BME280;29669;55.706;37.656;2023-03-01T06:17:56;99275.38;;;-3.26;nan
43814;BME280;29669;55.706;37.656;2023-03-01T06:20:28;99296.31;;;-3.22;nan
43814;BME280;29669;55.706;37.656;2023-03-01T06:22:56;99276.75;;;-3.20;nan
43814;BME280;29669;55.706;37.656;2023-03-01T06:25:26;99271.03;;;-3.10;nan
43814;BME280;29669;55.706;37.656;2023-03-01T06:27:55;99287.28;;;-2.98;nan
43814;BME280;29669;55.706;37.656;2023-03-01T06:30:25;99284.19;;;-3.03;nan
43814;BME280;29669;55.706;37.656;2023-03-01T06:32:54;99289.28;;;-3.03;nan
43814;BME280;29669;55.706;37.656;2023-03-01T06:35:29;99286.63;;;-2.88;nan
43814;BME280;29669;55.706;37.656;2023-03-01T06:38:00;99286.56;;;-2.86;nan
43814;BME280;29669;55.706;37.656;2023-03-01T06:40:29;99296.53;;;-2.83;nan
43814;BME280;29669;55.706;37.656;2023-03-01T06:42:59;99294.00;;;-2.83;nan
43814;BME280;29669;55.706;37.656;2023-03-01T06:45:27;99301.06;;;-2.88;nan
43814;BME280;29669;55.706;37.656;2023-03-01T06:48:01;99301.44;;;-2.94;nan
43814;BME280;29669;55.706;37.656;2023-03-01T06:50:30;99301.44;;;-2.94;nan
43814;BME280;29669;55.706;37.656;2023-03-01T06:52:59;99294.69;;;-2.95;nan
43814;BME280;29669;55.706;37.656;2023-03-01T06:55:27;99298.97;;;-2.96;nan
43814;BME280;29669;55.706;37.656;2023-03-01T06:57:56;99306.66;;;-2.97;nan
43814;BME280;29669;55.706;37.656;2023-03-01T07:00:24;99290.81;;;-3.01;nan
43814;BME280;29669;55.706;37.656;2023-03-01T07:02:53;99292.88;;;-2.93;nan
43814;BME280;29669;55.706;37.656;2023-03-01T07:05:21;99297.91;;;-2.92;nan
43814;BME280;29669;55.706;37.656;2023-03-01T07:07:49;99311.22;;;-2.88;nan
43814;BME280;29669;55.706;37.656;2023-03-01T07:10:17;99307.88;;;-2.89;nan
43814;BME280;29669;55.706;37.656;2023-03-01T07:12:45;99291.81;;;-2.89;nan
43814;BME280;29669;55.706;37.656;2023-03-01T07:15:14;99308.13;;;-2.93;nan
43814;BME280;29669;55.706;37.656;2023-03-01T07:17:42;99309.19;;;-2.97;nan
43814;BME280;29669;55.706;37.656;2023-03-01T07:20:12;99318.28;;;-2.93;nan
43814;BME280;29669;55.706;37.656;2023-03-01T07:22:40;99311.59;;;-2.94;nan
43814;BME280;29669;55.706;37.656;2023-03-01T07:25:10;99308.56;;;-3.01;nan
43814;BME280;29669;55.706;37.656;2023-03-01T07:27:38;99309.41;;;-3.00;nan
43814;BME280;29669;55.706;37.656;2023-03-01T07:30:06;99317.47;;;-2.94;nan
43814;BME280;29669;55.706;37.656;2023-03-01T07:32:35;99321.38;;;-2.88;nan
43814;BME280;29669;55.706;37.656;2023-03-01T07:35:04;99319.38;;;-2.83;nan
43814;BME280;29669;55.706;37.656;2023-03-01T07:37:32;99322.47;;;-2.78;nan
43814;BME280;29669;55.706;37.656;2023-03-01T07:40:00;99317.38;;;-2.64;nan
43814;BME280;29669;55.706;37.656;2023-03-01T07:42:29;99327.97;;;-2.43;nan
43814;BME280;29669;55.706;37.656;2023-03-01T07:44:57;99343.13;;;-2.28;nan
43814;BME280;29669;55.706;37.656;2023-03-01T07:47:24;99338.09;;;-2.15;nan
43814;BME280;29669;55.706;37.656;2023-03-01T07:49:52;99335.44;;;-2.00;nan
43814;BME280;29669;55.706;37.656;2023-03-01T07:52:20;99334.03;;;-1.91;nan
43814;BME280;29669;55.706;37.656;2023-03-01T07:54:47;99335.41;;;-1.85;nan
43814;BME280;29669;55.706;37.656;2023-03-01T07:57:15;99329.91;;;-1.79;nan
43814;BME280;29669;55.706;37.656;2023-03-01T07:59:44;99334.13;;;-1.78;nan
43814;BME280;29669;55.706;37.656;2023-03-01T08:02:12;99351.91;;;-1.78;nan
43814;BME280;29669;55.706;37.656;2023-03-01T08:04:40;99342.56;;;-1.78;nan
43814;BME280;29669;55.706;37.656;2023-03-01T08:07:08;99337.88;;;-1.71;nan
43814;BME280;29669;55.706;37.656;2023-03-01T08:09:36;99335.78;;;-1.65;nan
43814;BME280;29669;55.706;37.656;2023-03-01T08:12:05;99343.66;;;-1.55;nan
43814;BME280;29669;55.706;37.656;2023-03-01T08:14:33;99337.63;;;-1.54;nan
43814;BME280;29669;55.706;37.656;2023-03-01T08:17:01;99336.19;;;-1.58;nan
43814;BME280;29669;55.706;37.656;2023-03-01T08:19:30;99335.81;;;-1.52;nan
43814;BME280;29669;55.706;37.656;2023-03-01T08:21:58;99336.34;;;-1.47;nan
43814;BME280;29669;55.706;37.656;2023-03-01T08:24:27;99346.50;;;-1.47;nan
43814;BME280;29669;55.706;37.656;2023-03-01T08:26:55;99340.69;;;-1.49;nan
43814;BME280;29669;55.706;37.656;2023-03-01T08:29:23;99341.13;;;-1.55;nan
43814;BME280;29669;55.706;37.656;2023-03-01T08:31:51;99350.94;;;-1.63;nan
43814;BME280;29669;55.706;37.656;2023-03-01T08:34:19;99348.06;;;-1.71;nan
43814;BME280;29669;55.706;37.656;2023-03-01T08:36:47;99350.28;;;-1.79;nan
43814;BME280;29669;55.706;37.656;2023-03-01T08:39:16;99350.09;;;-1.76;nan
43814;BME280;29669;55.706;37.656;2023-03-01T08:41:46;99355.81;;;-1.73;nan
43814;BME280;29669;55.706;37.656;2023-03-01T08:44:15;99376.31;;;-1.76;nan
43814;BME280;29669;55.706;37.656;2023-03-01T08:46:47;99360.03;;;-1.86;nan
43814;BME280;29669;55.706;37.656;2023-03-01T08:49:18;99350.69;;;-1.85;nan
43814;BME280;29669;55.706;37.656;2023-03-01T08:51:47;99350.69;;;-1.85;nan
43814;BME280;29669;55.706;37.656;2023-03-01T08:54:17;99348.94;;;-1.85;nan
43814;BME280;29669;55.706;37.656;2023-03-01T08:56:46;99358.00;;;-1.81;nan
43814;BME280;29669;55.706;37.656;2023-03-01T08:59:15;99371.81;;;-1.85;nan
43814;BME280;29669;55.706;37.656;2023-03-01T09:01:43;99363.41;;;-1.85;nan
43814;BME280;29669;55.706;37.656;2023-03-01T09:04:12;99361.13;;;-1.90;nan
43814;BME280;29669;55.706;37.656;2023-03-01T09:06:42;99371.03;;;-1.85;nan
43814;BME280;29669;55.706;37.656;2023-03-01T09:09:13;99384.25;;;-1.80;nan
43814;BME280;29669;55.706;37.656;2023-03-01T09:11:43;99366.97;;;-1.75;nan
43814;BME280;29669;55.706;37.656;2023-03-01T09:14:13;99373.53;;;-1.59;nan
43814;BME280;29669;55.706;37.656;2023-03-01T09:16:41;99372.38;;;-1.53;nan
43814;BME280;29669;55.706;37.656;2023-03-01T09:19:10;99364.94;;;-1.44;nan
43814;BME280;29669;55.706;37.656;2023-03-01T09:21:38;99395.16;;;-1.25;nan
43814;BME280;29669;55.706;37.656;2023-03-01T09:24:13;99373.25;;;-1.28;nan
43814;BME280;29669;55.706;37.656;2023-03-01T09:26:42;99369.69;;;-1.25;nan
43814;BME280;29669;55.706;37.656;2023-03-01T09:29:10;99369.88;;;-1.28;nan
43814;BME280;29669;55.706;37.656;2023-03-01T09:31:37;99354.28;;;-1.36;nan
43814;BME280;29669;55.706;37.656;2023-03-01T09:34:06;99353.94;;;-1.18;nan
43814;BME280;29669;55.706;37.656;2023-03-01T09:36:35;99365.84;;;-1.06;nan
43814;BME280;29669;55.706;37.656;2023-03-01T09:39:03;99360.13;;;-1.09;nan
43814;BME280;29669;55.706;37.656;2023-03-01T09:42:03;99359.19;;;-1.21;nan
43814;BME280;29669;55.706;37.656;2023-03-01T09:47:37;99357.59;;;-1.09;nan
43814;BME280;29669;55.706;37.656;2023-03-01T09:50:17;99381.22;;;-0.95;nan
43814;BME280;29669;55.706;37.656;2023-03-01T09:53:13;99364.94;;;-0.79;nan
43814;BME280;29669;55.706;37.656;2023-03-01T09:55:50;99360.88;;;-0.57;nan
43814;BME280;29669;55.706;37.656;2023-03-01T09:58:31;99364.41;;;-0.22;nan
43814;BME280;29669;55.706;37.656;2023-03-01T10:01:13;99367.28;;;0.10;nan
43814;BME280;29669;55.706;37.656;2023-03-01T10:07:36;99378.47;;;0.44;nan
43814;BME280;29669;55.706;37.656;2023-03-01T10:09:40;99387.59;;;0.59;nan
43814;BME280;29669;55.706;37.656;2023-03-01T10:12:11;99376.03;;;0.66;nan
43814;BME280;29669;55.706;37.656;2023-03-01T10:14:51;99383.59;;;0.67;nan
43814;BME280;29669;55.706;37.656;2023-03-01T10:20:18;99383.16;;;0.73;nan
43814;BME280;29669;55.706;37.656;2023-03-01T10:22:46;99376.22;;;0.63;nan
43814;BME280;29669;55.706;37.656;2023-03-01T10:27:55;99383.75;;;0.30;nan
43814;BME280;29669;55.706;37.656;2023-03-01T10:30:38;99399.00;;;0.19;nan
43814;BME280;29669;55.706;37.656;2023-03-01T10:33:22;99385.84;;;0.12;nan
43814;BME280;29669;55.706;37.656;2023-03-01T10:35:50;99420.22;;;0.19;nan
43814;BME280;29669;55.706;37.656;2023-03-01T10:38:20;99390.28;;;0.21;nan
43814;BME280;29669;55.706;37.656;2023-03-01T10:41:05;99388.19;;;0.15;nan
43814;BME280;29669;55.706;37.656;2023-03-01T10:43:54;99386.91;;;0.33;nan
43814;BME280;29669;55.706;37.656;2023-03-01T10:46:34;99389.19;;;0.49;nan
43814;BME280;29669;55.706;37.656;2023-03-01T10:49:18;99389.22;;;0.36;nan
43814;BME280;29669;55.706;37.656;2023-03-01T10:51:48;99378.47;;;0.20;nan
43814;BME280;29669;55.706;37.656;2023-03-01T10:54:21;99391.19;;;0.33;nan
43814;BME280;29669;55.706;37.656;2023-03-01T10:56:54;99380.06;;;0.34;nan
43814;BME280;29669;55.706;37.656;2023-03-01T10:59:32;99391.56;;;0.63;nan
43814;BME280;29669;55.706;37.656;2023-03-01T11:02:23;99395.56;;;0.78;nan
43814;BME280;29669;55.706;37.656;2023-03-01T11:07:24;99391.66;;;0.61;nan
43814;BME280;29669;55.706;37.656;2023-03-01T11:09:52;99388.06;;;0.53;nan
43814;BME280;29669;55.706;37.656;2023-03-01T11:12:20;99405.09;;;0.52;nan
43814;BME280;29669;55.706;37.656;2023-03-01T11:14:58;99391.69;;;0.38;nan
43814;BME280;29669;55.706;37.656;2023-03-01T11:17:30;99392.44;;;0.51;nan
43814;BME280;29669;55.706;37.656;2023-03-01T11:20:24;99394.13;;;0.63;nan
43814;BME280;29669;55.706;37.656;2023-03-01T11:22:59;99383.94;;;0.74;nan
43814;BME280;29669;55.706;37.656;2023-03-01T11:25:35;99391.44;;;0.88;nan
43814;BME280;29669;55.706;37.656;2023-03-01T11:28:05;99389.34;;;0.93;nan
43814;BME280;29669;55.706;37.656;2023-03-01T11:30:51;99385.72;;;0.84;nan
43814;BME280;29669;55.706;37.656;2023-03-01T11:36:11;99398.81;;;0.80;nan
43814;BME280;29669;55.706;37.656;2023-03-01T11:38:43;99401.56;;;0.66;nan
43814;BME280;29669;55.706;37.656;2023-03-01T11:43:58;99388.53;;;0.58;nan
43814;BME280;29669;55.706;37.656;2023-03-01T11:49:12;99394.06;;;1.21;nan
43814;BME280;29669;55.706;37.656;2023-03-01T11:59:57;99403.81;;;1.16;nan
43814;BME280;29669;55.706;37.656;2023-03-01T12:08:49;99399.06;;;0.53;nan
43814;BME280;29669;55.706;37.656;2023-03-01T12:24:46;99426.28;;;0.65;nan
43814;BME280;29669;55.706;37.656;2023-03-01T12:27:43;99406.44;;;0.69;nan
43814;BME280;29669;55.706;37.656;2023-03-01T12:47:14;99408.69;;;0.14;nan
43814;BME280;29669;55.706;37.656;2023-03-01T12:49:57;99404.41;;;0.14;nan
43814;BME280;29669;55.706;37.656;2023-03-01T12:52:37;99407.28;;;0.10;nan
43814;BME280;29669;55.706;37.656;2023-03-01T12:55:36;99403.41;;;0.17;nan
43814;BME280;29669;55.706;37.656;2023-03-01T13:00:45;99422.69;;;0.08;nan
43814;BME280;29669;55.706;37.656;2023-03-01T13:20:30;99420.72;;;-0.25;nan
43814;BME280;29669;55.706;37.656;2023-03-01T13:23:06;99403.25;;;-0.18;nan
43814;BME280;29669;55.706;37.656;2023-03-01T13:33:44;99417.97;;;-0.59;nan
43814;BME280;29669;55.706;37.656;2023-03-01T13:39:00;99407.75;;;-0.72;nan
43814;BME280;29669;55.706;37.656;2023-03-01T13:44:21;99410.50;;;-0.75;nan
43814;BME280;29669;55.706;37.656;2023-03-01T13:46:57;99395.72;;;-0.82;nan
43814;BME280;29669;55.706;37.656;2023-03-01T13:49:28;99400.94;;;-0.84;nan
43814;BME280;29669;55.706;37.656;2023-03-01T13:54:55;99389.47;;;-1.04;nan
43814;BME280;29669;55.706;37.656;2023-03-01T13:57:31;99387.88;;;-1.05;nan
43814;BME280;29669;55.706;37.656;2023-03-01T14:00:00;99397.34;;;-1.07;nan
43814;BME280;29669;55.706;37.656;2023-03-01T14:02:31;99402.22;;;-1.04;nan
43814;BME280;29669;55.706;37.656;2023-03-01T14:05:00;99404.59;;;-1.01;nan
43814;BME280;29669;55.706;37.656;2023-03-01T14:07:29;99388.03;;;-1.08;nan
43814;BME280;29669;55.706;37.656;2023-03-01T14:10:00;99383.06;;;-1.09;nan
43814;BME280;29669;55.706;37.656;2023-03-01T14:18:04;99375.31;;;-1.20;nan
43814;BME280;29669;55.706;37.656;2023-03-01T14:20:43;99375.91;;;-1.17;nan
43814;BME280;29669;55.706;37.656;2023-03-01T14:23:18;99386.91;;;-1.16;nan
43814;BME280;29669;55.706;37.656;2023-03-01T14:25:49;99399.94;;;-1.21;nan
43814;BME280;29669;55.706;37.656;2023-03-01T14:28:19;99389.53;;;-1.30;nan
43814;BME280;29669;55.706;37.656;2023-03-01T14:30:51;99363.66;;;-1.37;nan
43814;BME280;29669;55.706;37.656;2023-03-01T14:33:33;99377.09;;;-1.35;nan
43814;BME280;29669;55.706;37.656;2023-03-01T14:36:08;99371.19;;;-1.35;nan
43814;BME280;29669;55.706;37.656;2023-03-01T14:38:43;99383.81;;;-1.34;nan
43814;BME280;29669;55.706;37.656;2023-03-01T14:41:14;99359.34;;;-1.36;nan
43814;BME280;29669;55.706;37.656;2023-03-01T14:44:00;99369.03;;;-1.41;nan
43814;BME280;29669;55.706;37.656;2023-03-01T14:46:39;99357.50;;;-1.47;nan
43814;BME280;29669;55.706;37.656;2023-03-01T14:49:16;99352.81;;;-1.53;nan
43814;BME280;29669;55.706;37.656;2023-03-01T14:52:18;99363.81;;;-1.52;nan
43814;BME280;29669;55.706;37.656;2023-03-01T14:54:52;99362.00;;;-1.50;nan
43814;BME280;29669;55.706;37.656;2023-03-01T14:57:25;99368.53;;;-1.46;nan
43814;BME280;29669;55.706;37.656;2023-03-01T14:59:55;99366.25;;;-1.51;nan
43814;BME280;29669;55.706;37.656;2023-03-01T15:02:26;99372.06;;;-1.49;nan
43814;BME280;29669;55.706;37.656;2023-03-01T15:04:57;99363.53;;;-1.48;nan
43814;BME280;29669;55.706;37.656;2023-03-01T15:07:34;99364.88;;;-1.42;nan
43814;BME280;29669;55.706;37.656;2023-03-01T15:10:05;99370.13;;;-1.45;nan
43814;BME280;29669;55.706;37.656;2023-03-01T15:12:41;99364.91;;;-1.56;nan
43814;BME280;29669;55.706;37.656;2023-03-01T15:18:04;99370.94;;;-1.57;nan
43814;BME280;29669;55.706;37.656;2023-03-01T15:20:33;99364.50;;;-1.63;nan
43814;BME280;29669;55.706;37.656;2023-03-01T15:23:03;99371.41;;;-1.65;nan
43814;BME280;29669;55.706;37.656;2023-03-01T15:25:32;99371.31;;;-1.63;nan
43814;BME280;29669;55.706;37.656;2023-03-01T15:28:01;99358.88;;;-1.68;nan
43814;BME280;29669;55.706;37.656;2023-03-01T15:30:34;99359.06;;;-1.71;nan
43814;BME280;29669;55.706;37.656;2023-03-01T15:35:50;99368.22;;;-1.68;nan
43814;BME280;29669;55.706;37.656;2023-03-01T15:38:36;99373.13;;;-1.65;nan
43814;BME280;29669;55.706;37.656;2023-03-01T15:41:26;99358.03;;;-1.68;nan
43814;BME280;29669;55.706;37.656;2023-03-01T15:44:14;99365.16;;;-1.73;nan